TimePST,TemperatureF,Dew PointF,Humidity,Sea Level PressureIn,VisibilityMPH,Wind Direction,Wind SpeedMPH,Gust SpeedMPH,PrecipitationIn,Events,Conditions,WindDirDegrees,DateUTC
12:15 AM,48.2,48.2,100,30.31,10.0,South,6.9,-,N/A,,Unknown,190,2013-12-23 08:15:00
12:35 AM,48.2,48.2,100,30.31,10.0,Calm,Calm,-,N/A,,Unknown,0,2013-12-23 08:35:00
12:55 AM,48.2,48.2,100,30.31,10.0,SSW,3.5,-,N/A,,Overcast,200,2013-12-23 08:55:00
1:15 AM,48.2,48.2,100,30.31,10.0,Calm,Calm,-,N/A,,Overcast,0,2013-12-23 09:15:00
1:35 AM,48.2,46.4,93,30.31,10.0,SW,3.5,-,N/A,,Overcast,230,2013-12-23 09:35:00
1:55 AM,48.2,46.4,93,30.30,9.0,Calm,Calm,-,N/A,Rain,Light Rain,0,2013-12-23 09:55:00
2:15 AM,48.2,48.2,100,30.31,8.0,SSW,3.5,-,0.01,Rain,Light Rain,210,2013-12-23 10:15:00
2:35 AM,48.2,48.2,100,30.31,10.0,Calm,Calm,-,0.01,Rain,Light Rain,0,2013-12-23 10:35:00
2:55 AM,48.2,48.2,100,30.31,5.0,Calm,Calm,-,0.02,Rain,Light Rain,0,2013-12-23 10:55:00
3:15 AM,48.2,48.2,100,30.31,3.0,South,5.8,-,0.03,Rain,Rain,190,2013-12-23 11:15:00
3:35 AM,48.2,48.2,100,30.30,6.0,South,5.8,-,0.03,,Overcast,190,2013-12-23 11:35:00
3:55 AM,48.2,48.2,100,30.30,3.0,South,5.8,-,0.03,Rain,Light Rain,190,2013-12-23 11:55:00
4:15 AM,48.2,48.2,100,30.29,3.0,South,6.9,-,0.01,Rain,Light Rain,180,2013-12-23 12:15:00
4:35 AM,48.2,48.2,100,30.28,5.0,South,9.2,-,0.02,Rain,Light Rain,180,2013-12-23 12:35:00
4:55 AM,48.2,48.2,100,30.26,10.0,South,10.4,18.4,0.02,,Overcast,170,2013-12-23 12:55:00
5:15 AM,48.2,48.2,100,30.26,10.0,South,12.7,17.3,N/A,,Overcast,170,2013-12-23 13:15:00
5:35 AM,48.2,48.2,100,30.26,10.0,South,10.4,16.1,N/A,,Overcast,180,2013-12-23 13:35:00
5:55 AM,48.2,48.2,100,30.26,10.0,South,9.2,-,N/A,,Overcast,190,2013-12-23 13:55:00
6:15 AM,48.2,48.2,100,30.25,10.0,South,11.5,17.3,N/A,,Overcast,170,2013-12-23 14:15:00
6:35 AM,48.2,48.2,100,30.25,10.0,South,10.4,17.3,N/A,,Overcast,180,2013-12-23 14:35:00
6:55 AM,48.2,48.2,100,30.25,4.0,South,10.4,-,N/A,,Overcast,180,2013-12-23 14:55:00
7:15 AM,48.2,48.2,100,30.26,4.0,SW,4.6,-,N/A,Rain,Light Rain,220,2013-12-23 15:15:00
7:35 AM,48.2,48.2,100,30.25,5.0,South,10.4,-,0.03,,Overcast,190,2013-12-23 15:35:00
7:55 AM,48.2,48.2,100,30.24,7.0,South,11.5,16.1,0.06,Rain,Light Rain,190,2013-12-23 15:55:00
8:15 AM,48.2,48.2,100,30.26,2.0,SSW,11.5,16.1,N/A,Rain,Light Rain,200,2013-12-23 16:15:00
8:35 AM,48.2,48.2,100,30.27,1.5,SSW,8.1,-,0.04,Rain,Light Rain,200,2013-12-23 16:35:00
8:55 AM,48.2,48.2,100,30.25,4.0,South,9.2,-,0.08,Rain,Rain,190,2013-12-23 16:55:00
9:15 AM,48.2,48.2,100,30.27,7.0,SSW,8.1,-,N/A,Rain,Light Rain,200,2013-12-23 17:15:00
9:35 AM,48.2,48.2,100,30.27,4.0,SSW,10.4,-,0.04,Rain,Light Rain,210,2013-12-23 17:35:00
9:55 AM,48.2,48.2,100,30.27,3.0,SSW,6.9,-,0.05,,Mostly Cloudy,200,2013-12-23 17:55:00
10:15 AM,48.2,48.2,100,30.28,7.0,SSW,9.2,-,0.01,,Mostly Cloudy,200,2013-12-23 18:15:00
10:35 AM,50.0,50.0,100,30.28,10.0,SSW,10.4,-,0.01,,Mostly Cloudy,210,2013-12-23 18:35:00
10:55 AM,50.0,50.0,100,30.27,5.0,SSW,10.4,-,0.01,Rain,Light Rain,210,2013-12-23 18:55:00
11:15 AM,50.0,50.0,100,30.27,10.0,SW,6.9,-,N/A,,Mostly Cloudy,220,2013-12-23 19:15:00
11:35 AM,50.0,50.0,100,30.27,10.0,WSW,8.1,-,N/A,,Mostly Cloudy,240,2013-12-23 19:35:00
11:55 AM,50.0,48.2,94,30.27,10.0,WSW,9.2,-,N/A,,Mostly Cloudy,240,2013-12-23 19:55:00
12:15 PM,50.0,48.2,94,30.28,10.0,West,8.1,-,N/A,,Mostly Cloudy,260,2013-12-23 20:15:00
12:35 PM,50.0,44.6,82,30.29,10.0,WNW,16.1,24.2,N/A,,Mostly Cloudy,300,2013-12-23 20:35:00
12:55 PM,50.0,42.8,76,30.29,10.0,WNW,9.2,17.3,N/A,,Partly Cloudy,290,2013-12-23 20:55:00
1:15 PM,50.0,41.0,71,30.29,10.0,WNW,11.5,19.6,N/A,,Clear,300,2013-12-23 21:15:00
1:35 PM,51.8,42.8,71,30.31,10.0,NW,5.8,-,N/A,,Clear,310,2013-12-23 21:35:00
1:55 PM,53.6,42.8,67,30.32,9.0,WSW,6.9,-,N/A,,Mostly Cloudy,250,2013-12-23 21:55:00
2:15 PM,51.8,44.6,76,30.33,10.0,WNW,6.9,-,N/A,,Mostly Cloudy,290,2013-12-23 22:15:00
2:35 PM,50.0,41.0,71,30.33,10.0,NW,6.9,-,N/A,,Partly Cloudy,310,2013-12-23 22:35:00
2:55 PM,50.0,41.0,71,30.34,10.0,Calm,Calm,-,N/A,,Scattered Clouds,0,2013-12-23 22:55:00
3:15 PM,50.0,41.0,71,30.35,10.0,Calm,Calm,-,N/A,,Mostly Cloudy,0,2013-12-23 23:15:00
3:35 PM,48.2,41.0,76,30.35,10.0,Calm,Calm,-,N/A,,Mostly Cloudy,0,2013-12-23 23:35:00
3:55 PM,48.2,41.0,76,30.36,10.0,WNW,8.1,-,N/A,,Mostly Cloudy,290,2013-12-23 23:55:00
4:15 PM,46.4,41.0,81,30.37,10.0,WNW,8.1,-,N/A,,Scattered Clouds,300,2013-12-24 00:15:00
4:35 PM,46.4,41.0,81,30.40,10.0,WNW,5.8,-,N/A,,Partly Cloudy,300,2013-12-24 00:35:00
4:55 PM,46.4,41.0,81,30.41,10.0,Calm,Calm,-,N/A,,Scattered Clouds,0,2013-12-24 00:55:00
5:15 PM,44.6,39.2,81,30.42,10.0,Calm,Calm,-,N/A,,Partly Cloudy,0,2013-12-24 01:15:00
5:35 PM,44.6,39.2,81,30.43,10.0,WSW,3.5,-,N/A,,Mostly Cloudy,240,2013-12-24 01:35:00
5:55 PM,44.6,41.0,87,30.43,10.0,SW,3.5,-,N/A,,Overcast,230,2013-12-24 01:55:00
6:15 PM,44.6,41.0,87,30.44,10.0,SSW,4.6,-,N/A,,Unknown,200,2013-12-24 02:15:00
6:35 PM,44.6,41.0,87,30.46,10.0,Calm,Calm,-,N/A,,Overcast,0,2013-12-24 02:35:00
6:55 PM,44.6,41.0,87,30.47,10.0,SSW,3.5,-,N/A,,Overcast,210,2013-12-24 02:55:00
7:15 PM,42.8,41.0,93,30.47,10.0,WSW,3.5,-,N/A,,Mostly Cloudy,240,2013-12-24 03:15:00
7:35 PM,42.8,41.0,93,30.49,10.0,SSW,3.5,-,N/A,,Overcast,210,2013-12-24 03:35:00
7:55 PM,42.8,41.0,93,30.49,10.0,WSW,3.5,-,N/A,,Overcast,240,2013-12-24 03:55:00
8:15 PM,41.0,41.0,100,30.50,10.0,SW,5.8,-,N/A,,Mostly Cloudy,220,2013-12-24 04:15:00
8:35 PM,41.0,39.2,93,30.51,10.0,South,3.5,-,N/A,,Clear,180,2013-12-24 04:35:00
8:55 PM,39.2,39.2,100,30.51,7.0,WSW,5.8,-,N/A,,Clear,240,2013-12-24 04:55:00
9:15 PM,39.2,39.2,100,30.52,9.0,SSW,3.5,-,N/A,,Clear,210,2013-12-24 05:15:00
9:35 PM,41.0,39.2,93,30.52,10.0,SW,3.5,-,N/A,,Clear,220,2013-12-24 05:35:00
9:55 PM,39.2,39.2,100,30.52,10.0,Calm,Calm,-,N/A,,Partly Cloudy,0,2013-12-24 05:55:00
10:15 PM,39.2,39.2,100,30.53,10.0,South,5.8,-,N/A,,Unknown,180,2013-12-24 06:15:00
10:35 PM,37.4,37.4,100,30.54,10.0,Calm,Calm,-,N/A,,Unknown,0,2013-12-24 06:35:00
10:55 PM,37.4,37.4,100,30.54,10.0,SSW,3.5,-,N/A,,Clear,200,2013-12-24 06:55:00
11:15 PM,37.4,37.4,100,30.55,10.0,SSW,6.9,-,N/A,,Partly Cloudy,210,2013-12-24 07:15:00
11:35 PM,35.6,35.6,100,30.55,10.0,SSW,4.6,-,N/A,,Clear,200,2013-12-24 07:35:00
11:55 PM,37.4,37.4,100,30.55,10.0,WSW,3.5,-,N/A,,Clear,240,2013-12-24 07:55:00